sensor_id;sensor_type;location;lat;lon;timestamp;P1;durP1;ratioP1;P2;durP2;ratioP2
22186;SDS011;11259;52.146;12.844;2023-04-03T00:01:28;0.70;;;0.70;;
22186;SDS011;11259;52.146;12.844;2023-04-03T00:03:53;0.60;;;0.60;;
22186;SDS011;11259;52.146;12.844;2023-04-03T00:06:19;1.27;;;0.80;;
22186;SDS011;11259;52.146;12.844;2023-04-03T00:08:44;0.63;;;0.63;;
22186;SDS011;11259;52.146;12.844;2023-04-03T00:11:11;0.65;;;0.65;;
22186;SDS011;11259;52.146;12.844;2023-04-03T00:13:36;0.70;;;0.70;;
22186;SDS011;11259;52.146;12.844;2023-04-03T00:16:02;0.75;;;0.70;;
22186;SDS011;11259;52.146;12.844;2023-04-03T00:18:28;1.65;;;0.85;;
22186;SDS011;11259;52.146;12.844;2023-04-03T00:20:54;0.60;;;0.60;;
22186;SDS011;11259;52.146;12.844;2023-04-03T00:23:19;0.50;;;0.50;;
22186;SDS011;11259;52.146;12.844;2023-04-03T00:25:45;0.90;;;0.68;;
22186;SDS011;11259;52.146;12.844;2023-04-03T00:28:12;0.85;;;0.70;;
22186;SDS011;11259;52.146;12.844;2023-04-03T00:30:37;2.80;;;1.13;;
22186;SDS011;11259;52.146;12.844;2023-04-03T00:33:02;0.50;;;0.50;;
22186;SDS011;11259;52.146;12.844;2023-04-03T00:35:28;0.60;;;0.60;;
22186;SDS011;11259;52.146;12.844;2023-04-03T00:37:54;0.93;;;0.93;;
22186;SDS011;11259;52.146;12.844;2023-04-03T00:40:20;0.82;;;0.70;;
22186;SDS011;11259;52.146;12.844;2023-04-03T00:42:46;1.27;;;0.73;;
22186;SDS011;11259;52.146;12.844;2023-04-03T00:45:34;2.42;;;0.85;;
22186;SDS011;11259;52.146;12.844;2023-04-03T00:48:02;0.63;;;0.63;;
22186;SDS011;11259;52.146;12.844;2023-04-03T00:50:29;0.60;;;0.60;;
22186;SDS011;11259;52.146;12.844;2023-04-03T00:52:55;0.50;;;0.50;;
22186;SDS011;11259;52.146;12.844;2023-04-03T00:55:21;0.75;;;0.75;;
22186;SDS011;11259;52.146;12.844;2023-04-03T00:57:46;0.70;;;0.68;;
22186;SDS011;11259;52.146;12.844;2023-04-03T01:00:12;0.65;;;0.65;;
22186;SDS011;11259;52.146;12.844;2023-04-03T01:02:41;0.52;;;0.52;;
22186;SDS011;11259;52.146;12.844;2023-04-03T01:05:06;0.80;;;0.77;;
22186;SDS011;11259;52.146;12.844;2023-04-03T01:07:32;0.68;;;0.68;;
22186;SDS011;11259;52.146;12.844;2023-04-03T01:09:58;0.77;;;0.77;;
22186;SDS011;11259;52.146;12.844;2023-04-03T01:12:25;0.85;;;0.85;;
22186;SDS011;11259;52.146;12.844;2023-04-03T01:14:53;7.32;;;0.80;;
22186;SDS011;11259;52.146;12.844;2023-04-03T01:17:27;0.65;;;0.65;;
22186;SDS011;11259;52.146;12.844;2023-04-03T01:19:57;0.63;;;0.63;;
22186;SDS011;11259;52.146;12.844;2023-04-03T01:22:48;0.73;;;0.73;;
22186;SDS011;11259;52.146;12.844;2023-04-03T01:25:17;0.75;;;0.70;;
22186;SDS011;11259;52.146;12.844;2023-04-03T01:27:42;0.60;;;0.60;;
22186;SDS011;11259;52.146;12.844;2023-04-03T01:30:08;0.65;;;0.65;;
22186;SDS011;11259;52.146;12.844;2023-04-03T01:32:36;0.90;;;0.90;;
22186;SDS011;11259;52.146;12.844;2023-04-03T01:35:01;1.02;;;0.93;;
22186;SDS011;11259;52.146;12.844;2023-04-03T01:37:26;0.77;;;0.77;;
22186;SDS011;11259;52.146;12.844;2023-04-03T01:39:52;0.50;;;0.50;;
22186;SDS011;11259;52.146;12.844;2023-04-03T01:42:17;0.63;;;0.63;;
22186;SDS011;11259;52.146;12.844;2023-04-03T01:44:42;0.60;;;0.60;;
22186;SDS011;11259;52.146;12.844;2023-04-03T01:47:08;0.80;;;0.80;;
22186;SDS011;11259;52.146;12.844;2023-04-03T01:49:34;1.65;;;0.88;;
22186;SDS011;11259;52.146;12.844;2023-04-03T01:52:00;0.80;;;0.80;;
22186;SDS011;11259;52.146;12.844;2023-04-03T01:54:25;0.55;;;0.55;;
22186;SDS011;11259;52.146;12.844;2023-04-03T01:56:50;0.73;;;0.73;;
22186;SDS011;11259;52.146;12.844;2023-04-03T01:59:16;0.60;;;0.60;;
22186;SDS011;11259;52.146;12.844;2023-04-03T02:01:41;3.05;;;1.08;;
22186;SDS011;11259;52.146;12.844;2023-04-03T02:04:06;0.73;;;0.70;;
22186;SDS011;11259;52.146;12.844;2023-04-03T02:06:33;0.70;;;0.68;;
22186;SDS011;11259;52.146;12.844;2023-04-03T02:08:58;0.85;;;0.80;;
22186;SDS011;11259;52.146;12.844;2023-04-03T02:11:24;0.68;;;0.68;;
22186;SDS011;11259;52.146;12.844;2023-04-03T02:13:49;0.60;;;0.60;;
22186;SDS011;11259;52.146;12.844;2023-04-03T02:16:14;1.17;;;0.75;;
22186;SDS011;11259;52.146;12.844;2023-04-03T02:18:40;1.42;;;0.90;;
22186;SDS011;11259;52.146;12.844;2023-04-03T02:21:05;0.50;;;0.50;;
22186;SDS011;11259;52.146;12.844;2023-04-03T02:23:32;0.75;;;0.75;;
22186;SDS011;11259;52.146;12.844;2023-04-03T02:26:04;1.55;;;0.70;;
22186;SDS011;11259;52.146;12.844;2023-04-03T02:28:31;0.55;;;0.55;;
22186;SDS011;11259;52.146;12.844;2023-04-03T02:30:56;0.50;;;0.50;;
22186;SDS011;11259;52.146;12.844;2023-04-03T02:33:21;1.83;;;0.77;;
22186;SDS011;11259;52.146;12.844;2023-04-03T02:35:47;0.52;;;0.52;;
22186;SDS011;11259;52.146;12.844;2023-04-03T02:38:12;0.52;;;0.52;;
22186;SDS011;11259;52.146;12.844;2023-04-03T02:40:39;0.77;;;0.77;;
22186;SDS011;11259;52.146;12.844;2023-04-03T02:43:04;1.77;;;0.80;;
22186;SDS011;11259;52.146;12.844;2023-04-03T02:45:29;0.50;;;0.50;;
22186;SDS011;11259;52.146;12.844;2023-04-03T02:47:54;0.90;;;0.80;;
22186;SDS011;11259;52.146;12.844;2023-04-03T02:50:20;0.82;;;0.82;;
22186;SDS011;11259;52.146;12.844;2023-04-03T02:52:45;2.17;;;0.60;;
22186;SDS011;11259;52.146;12.844;2023-04-03T02:55:12;0.70;;;0.70;;
22186;SDS011;11259;52.146;12.844;2023-04-03T02:57:40;0.60;;;0.60;;
22186;SDS011;11259;52.146;12.844;2023-04-03T03:00:06;0.63;;;0.63;;
22186;SDS011;11259;52.146;12.844;2023-04-03T03:02:32;0.60;;;0.60;;
22186;SDS011;11259;52.146;12.844;2023-04-03T03:04:57;0.88;;;0.88;;
22186;SDS011;11259;52.146;12.844;2023-04-03T03:07:22;1.40;;;0.55;;
22186;SDS011;11259;52.146;12.844;2023-04-03T03:09:48;0.60;;;0.60;;
22186;SDS011;11259;52.146;12.844;2023-04-03T03:12:13;0.95;;;0.95;;
22186;SDS011;11259;52.146;12.844;2023-04-03T03:14:40;4.28;;;1.25;;
22186;SDS011;11259;52.146;12.844;2023-04-03T03:17:05;0.93;;;0.75;;
22186;SDS011;11259;52.146;12.844;2023-04-03T03:19:30;2.25;;;0.80;;
22186;SDS011;11259;52.146;12.844;2023-04-03T03:21:56;0.85;;;0.85;;
22186;SDS011;11259;52.146;12.844;2023-04-03T03:24:21;1.30;;;0.95;;
22186;SDS011;11259;52.146;12.844;2023-04-03T03:26:46;4.43;;;2.05;;
22186;SDS011;11259;52.146;12.844;2023-04-03T03:29:12;0.70;;;0.70;;
22186;SDS011;11259;52.146;12.844;2023-04-03T03:31:38;0.80;;;0.80;;
22186;SDS011;11259;52.146;12.844;2023-04-03T03:34:04;0.50;;;0.50;;
22186;SDS011;11259;52.146;12.844;2023-04-03T03:36:29;0.50;;;0.50;;
22186;SDS011;11259;52.146;12.844;2023-04-03T03:38:54;0.50;;;0.50;;
22186;SDS011;11259;52.146;12.844;2023-04-03T03:41:20;1.35;;;1.05;;
22186;SDS011;11259;52.146;12.844;2023-04-03T03:43:45;1.77;;;1.10;;
22186;SDS011;11259;52.146;12.844;2023-04-03T03:46:10;0.60;;;0.60;;
22186;SDS011;11259;52.146;12.844;2023-04-03T03:48:37;0.80;;;0.80;;
22186;SDS011;11259;52.146;12.844;2023-04-03T03:51:03;0.65;;;0.65;;
22186;SDS011;11259;52.146;12.844;2023-04-03T03:53:28;0.73;;;0.60;;
22186;SDS011;11259;52.146;12.844;2023-04-03T03:55:53;0.63;;;0.63;;
22186;SDS011;11259;52.146;12.844;2023-04-03T03:58:19;0.93;;;0.68;;
22186;SDS011;11259;52.146;12.844;2023-04-03T04:00:44;0.90;;;0.88;;
22186;SDS011;11259;52.146;12.844;2023-04-03T04:03:09;1.08;;;1.05;;
22186;SDS011;11259;52.146;12.844;2023-04-03T04:05:36;0.60;;;0.60;;
22186;SDS011;11259;52.146;12.844;2023-04-03T04:08:01;0.60;;;0.60;;
22186;SDS011;11259;52.146;12.844;2023-04-03T04:10:27;0.60;;;0.60;;
22186;SDS011;11259;52.146;12.844;2023-04-03T04:12:52;0.95;;;0.95;;
22186;SDS011;11259;52.146;12.844;2023-04-03T04:15:17;0.75;;;0.75;;
22186;SDS011;11259;52.146;12.844;2023-04-03T04:17:43;1.88;;;0.80;;
22186;SDS011;11259;52.146;12.844;2023-04-03T04:20:09;0.70;;;0.70;;
22186;SDS011;11259;52.146;12.844;2023-04-03T04:22:36;0.73;;;0.73;;
22186;SDS011;11259;52.146;12.844;2023-04-03T04:25:02;1.10;;;0.80;;
22186;SDS011;11259;52.146;12.844;2023-04-03T04:27:27;1.65;;;0.80;;
22186;SDS011;11259;52.146;12.844;2023-04-03T04:29:52;0.77;;;0.77;;
22186;SDS011;11259;52.146;12.844;2023-04-03T04:32:18;0.52;;;0.52;;
22186;SDS011;11259;52.146;12.844;2023-04-03T04:34:43;1.30;;;0.88;;
22186;SDS011;11259;52.146;12.844;2023-04-03T04:37:08;1.48;;;0.80;;
22186;SDS011;11259;52.146;12.844;2023-04-03T04:39:35;0.70;;;0.70;;
22186;SDS011;11259;52.146;12.844;2023-04-03T04:42:00;0.85;;;0.85;;
22186;SDS011;11259;52.146;12.844;2023-04-03T04:44:26;0.60;;;0.60;;
22186;SDS011;11259;52.146;12.844;2023-04-03T04:46:51;0.60;;;0.60;;
22186;SDS011;11259;52.146;12.844;2023-04-03T04:49:16;0.50;;;0.50;;
22186;SDS011;11259;52.146;12.844;2023-04-03T04:51:42;1.55;;;1.17;;
22186;SDS011;11259;52.146;12.844;2023-04-03T04:54:07;0.77;;;0.77;;
22186;SDS011;11259;52.146;12.844;2023-04-03T04:56:34;1.27;;;1.08;;
22186;SDS011;11259;52.146;12.844;2023-04-03T04:59:00;0.93;;;0.93;;
22186;SDS011;11259;52.146;12.844;2023-04-03T05:01:26;0.60;;;0.60;;
22186;SDS011;11259;52.146;12.844;2023-04-03T05:03:51;1.45;;;1.35;;
22186;SDS011;11259;52.146;12.844;2023-04-03T05:06:17;0.63;;;0.63;;
22186;SDS011;11259;52.146;12.844;2023-04-03T05:08:42;2.63;;;1.33;;
22186;SDS011;11259;52.146;12.844;2023-04-03T05:11:07;3.60;;;1.77;;
22186;SDS011;11259;52.146;12.844;2023-04-03T05:13:34;0.82;;;0.80;;
22186;SDS011;11259;52.146;12.844;2023-04-03T05:15:59;1.38;;;1.20;;
22186;SDS011;11259;52.146;12.844;2023-04-03T05:18:25;3.30;;;1.05;;
22186;SDS011;11259;52.146;12.844;2023-04-03T05:20:51;1.55;;;0.82;;
22186;SDS011;11259;52.146;12.844;2023-04-03T05:23:16;0.70;;;0.70;;
22186;SDS011;11259;52.146;12.844;2023-04-03T05:25:41;0.80;;;0.80;;
22186;SDS011;11259;52.146;12.844;2023-04-03T05:28:07;0.70;;;0.70;;
22186;SDS011;11259;52.146;12.844;2023-04-03T05:30:33;0.65;;;0.65;;
22186;SDS011;11259;52.146;12.844;2023-04-03T05:32:59;0.75;;;0.75;;
22186;SDS011;11259;52.146;12.844;2023-04-03T05:35:24;0.93;;;0.93;;
22186;SDS011;11259;52.146;12.844;2023-04-03T05:37:50;0.80;;;0.80;;
22186;SDS011;11259;52.146;12.844;2023-04-03T05:40:15;0.60;;;0.60;;
22186;SDS011;11259;52.146;12.844;2023-04-03T05:42:40;0.60;;;0.60;;
22186;SDS011;11259;52.146;12.844;2023-04-03T05:45:06;0.60;;;0.60;;
22186;SDS011;11259;52.146;12.844;2023-04-03T05:47:33;0.63;;;0.63;;
22186;SDS011;11259;52.146;12.844;2023-04-03T05:49:58;3.63;;;0.90;;
22186;SDS011;11259;52.146;12.844;2023-04-03T05:52:25;0.75;;;0.75;;
22186;SDS011;11259;52.146;12.844;2023-04-03T05:54:52;0.75;;;0.75;;
22186;SDS011;11259;52.146;12.844;2023-04-03T05:57:17;1.08;;;0.98;;
22186;SDS011;11259;52.146;12.844;2023-04-03T05:59:43;2.05;;;0.60;;
22186;SDS011;11259;52.146;12.844;2023-04-03T06:02:10;2.92;;;0.80;;
22186;SDS011;11259;52.146;12.844;2023-04-03T06:04:37;0.63;;;0.63;;
22186;SDS011;11259;52.146;12.844;2023-04-03T06:07:02;1.08;;;0.90;;
22186;SDS011;11259;52.146;12.844;2023-04-03T06:09:28;0.60;;;0.60;;
22186;SDS011;11259;52.146;12.844;2023-04-03T06:11:53;0.55;;;0.55;;
22186;SDS011;11259;52.146;12.844;2023-04-03T06:14:19;1.10;;;1.10;;
22186;SDS011;11259;52.146;12.844;2023-04-03T06:16:44;0.50;;;0.50;;
22186;SDS011;11259;52.146;12.844;2023-04-03T06:19:10;0.85;;;0.85;;
22186;SDS011;11259;52.146;12.844;2023-04-03T06:21:38;0.70;;;0.70;;
22186;SDS011;11259;52.146;12.844;2023-04-03T06:24:04;0.55;;;0.55;;
22186;SDS011;11259;52.146;12.844;2023-04-03T06:26:29;0.60;;;0.60;;
22186;SDS011;11259;52.146;12.844;2023-04-03T06:28:55;1.65;;;1.25;;
22186;SDS011;11259;52.146;12.844;2023-04-03T06:31:20;1.10;;;1.00;;
22186;SDS011;11259;52.146;12.844;2023-04-03T06:33:46;0.95;;;0.95;;
22186;SDS011;11259;52.146;12.844;2023-04-03T06:36:11;0.65;;;0.65;;
22186;SDS011;11259;52.146;12.844;2023-04-03T06:38:38;0.95;;;0.60;;
22186;SDS011;11259;52.146;12.844;2023-04-03T06:41:04;0.88;;;0.88;;
22186;SDS011;11259;52.146;12.844;2023-04-03T06:43:29;0.80;;;0.80;;
22186;SDS011;11259;52.146;12.844;2023-04-03T06:45:54;0.80;;;0.80;;
22186;SDS011;11259;52.146;12.844;2023-04-03T06:48:20;0.65;;;0.60;;
22186;SDS011;11259;52.146;12.844;2023-04-03T06:50:45;0.60;;;0.60;;
22186;SDS011;11259;52.146;12.844;2023-04-03T06:53:10;0.73;;;0.70;;
22186;SDS011;11259;52.146;12.844;2023-04-03T06:55:37;1.17;;;0.77;;
22186;SDS011;11259;52.146;12.844;2023-04-03T06:58:03;3.15;;;0.70;;
22186;SDS011;11259;52.146;12.844;2023-04-03T07:00:28;0.85;;;0.50;;
22186;SDS011;11259;52.146;12.844;2023-04-03T07:02:54;0.55;;;0.50;;
22186;SDS011;11259;52.146;12.844;2023-04-03T07:05:19;0.40;;;0.40;;
22186;SDS011;11259;52.146;12.844;2023-04-03T07:07:44;1.02;;;0.45;;
22186;SDS011;11259;52.146;12.844;2023-04-03T07:10:10;0.65;;;0.65;;
22186;SDS011;11259;52.146;12.844;2023-04-03T07:12:36;0.60;;;0.60;;
22186;SDS011;11259;52.146;12.844;2023-04-03T07:15:02;0.82;;;0.82;;
22186;SDS011;11259;52.146;12.844;2023-04-03T07:17:28;1.15;;;1.15;;
22186;SDS011;11259;52.146;12.844;2023-04-03T07:19:53;0.60;;;0.60;;
22186;SDS011;11259;52.146;12.844;2023-04-03T07:22:18;1.30;;;0.80;;
22186;SDS011;11259;52.146;12.844;2023-04-03T07:24:44;0.77;;;0.50;;
22186;SDS011;11259;52.146;12.844;2023-04-03T07:27:09;1.00;;;0.88;;
22186;SDS011;11259;52.146;12.844;2023-04-03T07:29:36;1.42;;;0.75;;
22186;SDS011;11259;52.146;12.844;2023-04-03T07:32:01;0.80;;;0.55;;
22186;SDS011;11259;52.146;12.844;2023-04-03T07:34:27;0.50;;;0.50;;
22186;SDS011;11259;52.146;12.844;2023-04-03T07:36:52;3.58;;;0.90;;
22186;SDS011;11259;52.146;12.844;2023-04-03T07:39:18;0.65;;;0.60;;
22186;SDS011;11259;52.146;12.844;2023-04-03T07:41:43;0.60;;;0.60;;
22186;SDS011;11259;52.146;12.844;2023-04-03T07:44:08;1.25;;;0.80;;
22186;SDS011;11259;52.146;12.844;2023-04-03T07:46:35;0.50;;;0.50;;
22186;SDS011;11259;52.146;12.844;2023-04-03T07:49:00;4.35;;;1.08;;
22186;SDS011;11259;52.146;12.844;2023-04-03T07:51:26;0.73;;;0.70;;
22186;SDS011;11259;52.146;12.844;2023-04-03T07:53:51;0.85;;;0.85;;
22186;SDS011;11259;52.146;12.844;2023-04-03T07:56:17;0.50;;;0.50;;
22186;SDS011;11259;52.146;12.844;2023-04-03T07:58:43;1.35;;;0.90;;
22186;SDS011;11259;52.146;12.844;2023-04-03T08:01:08;1.17;;;1.08;;
22186;SDS011;11259;52.146;12.844;2023-04-03T08:03:35;1.17;;;0.65;;
22186;SDS011;11259;52.146;12.844;2023-04-03T08:06:01;0.73;;;0.73;;
22186;SDS011;11259;52.146;12.844;2023-04-03T08:08:27;0.68;;;0.68;;
22186;SDS011;11259;52.146;12.844;2023-04-03T08:10:53;1.27;;;1.20;;
22186;SDS011;11259;52.146;12.844;2023-04-03T08:13:19;1.00;;;0.90;;
22186;SDS011;11259;52.146;12.844;2023-04-03T08:15:44;0.68;;;0.68;;
22186;SDS011;11259;52.146;12.844;2023-04-03T08:18:10;5.47;;;0.90;;
22186;SDS011;11259;52.146;12.844;2023-04-03T08:20:37;1.48;;;0.85;;
22186;SDS011;11259;52.146;12.844;2023-04-03T08:23:02;3.00;;;0.95;;
22186;SDS011;11259;52.146;12.844;2023-04-03T08:25:28;0.50;;;0.50;;
22186;SDS011;11259;52.146;12.844;2023-04-03T08:27:53;0.70;;;0.70;;
22186;SDS011;11259;52.146;12.844;2023-04-03T08:30:19;0.50;;;0.50;;
22186;SDS011;11259;52.146;12.844;2023-04-03T08:32:44;0.57;;;0.57;;
22186;SDS011;11259;52.146;12.844;2023-04-03T08:35:09;0.70;;;0.70;;
22186;SDS011;11259;52.146;12.844;2023-04-03T08:37:37;1.35;;;0.70;;
22186;SDS011;11259;52.146;12.844;2023-04-03T08:40:03;1.75;;;0.80;;
22186;SDS011;11259;52.146;12.844;2023-04-03T08:42:33;0.50;;;0.50;;
22186;SDS011;11259;52.146;12.844;2023-04-03T08:45:03;1.13;;;1.02;;
22186;SDS011;11259;52.146;12.844;2023-04-03T08:47:36;0.70;;;0.70;;
22186;SDS011;11259;52.146;12.844;2023-04-03T08:50:04;4.25;;;1.42;;
22186;SDS011;11259;52.146;12.844;2023-04-03T08:52:32;1.30;;;1.05;;
22186;SDS011;11259;52.146;12.844;2023-04-03T08:55:02;0.70;;;0.70;;
22186;SDS011;11259;52.146;12.844;2023-04-03T08:57:30;0.82;;;0.80;;
22186;SDS011;11259;52.146;12.844;2023-04-03T08:59:59;2.05;;;0.68;;
22186;SDS011;11259;52.146;12.844;2023-04-03T09:02:27;0.70;;;0.70;;
22186;SDS011;11259;52.146;12.844;2023-04-03T09:04:55;0.70;;;0.70;;
22186;SDS011;11259;52.146;12.844;2023-04-03T09:07:22;0.60;;;0.60;;
22186;SDS011;11259;52.146;12.844;2023-04-03T09:09:55;2.85;;;0.70;;
22186;SDS011;11259;52.146;12.844;2023-04-03T09:12:24;0.65;;;0.60;;
22186;SDS011;11259;52.146;12.844;2023-04-03T09:14:53;0.50;;;0.50;;
22186;SDS011;11259;52.146;12.844;2023-04-03T09:17:26;0.95;;;0.95;;
22186;SDS011;11259;52.146;12.844;2023-04-03T09:20:02;1.95;;;0.80;;
22186;SDS011;11259;52.146;12.844;2023-04-03T09:22:36;0.50;;;0.50;;
22186;SDS011;11259;52.146;12.844;2023-04-03T09:25:05;0.85;;;0.80;;
22186;SDS011;11259;52.146;12.844;2023-04-03T09:27:37;0.65;;;0.65;;
22186;SDS011;11259;52.146;12.844;2023-04-03T09:30:02;2.35;;;0.80;;
22186;SDS011;11259;52.146;12.844;2023-04-03T09:32:29;0.60;;;0.60;;
22186;SDS011;11259;52.146;12.844;2023-04-03T09:34:57;0.88;;;0.88;;
22186;SDS011;11259;52.146;12.844;2023-04-03T09:37:39;2.00;;;0.73;;
22186;SDS011;11259;52.146;12.844;2023-04-03T09:40:05;0.57;;;0.57;;
22186;SDS011;11259;52.146;12.844;2023-04-03T09:42:40;0.70;;;0.70;;
22186;SDS011;11259;52.146;12.844;2023-04-03T09:45:18;0.60;;;0.60;;
22186;SDS011;11259;52.146;12.844;2023-04-03T09:47:46;0.68;;;0.68;;
22186;SDS011;11259;52.146;12.844;2023-04-03T09:50:18;0.60;;;0.60;;
22186;SDS011;11259;52.146;12.844;2023-04-03T09:52:45;2.92;;;1.60;;
22186;SDS011;11259;52.146;12.844;2023-04-03T09:55:13;0.52;;;0.52;;
22186;SDS011;11259;52.146;12.844;2023-04-03T09:57:41;0.60;;;0.60;;
22186;SDS011;11259;52.146;12.844;2023-04-03T10:00:10;0.70;;;0.70;;
22186;SDS011;11259;52.146;12.844;2023-04-03T10:02:46;0.60;;;0.60;;
22186;SDS011;11259;52.146;12.844;2023-04-03T10:05:34;1.95;;;0.65;;
22186;SDS011;11259;52.146;12.844;2023-04-03T10:08:07;3.60;;;0.82;;
22186;SDS011;11259;52.146;12.844;2023-04-03T10:10:34;0.60;;;0.60;;
22186;SDS011;11259;52.146;12.844;2023-04-03T10:13:11;0.47;;;0.47;;
22186;SDS011;11259;52.146;12.844;2023-04-03T10:15:39;0.80;;;0.80;;
22186;SDS011;11259;52.146;12.844;2023-04-03T10:18:07;2.58;;;0.93;;
22186;SDS011;11259;52.146;12.844;2023-04-03T10:20:47;0.90;;;0.80;;
22186;SDS011;11259;52.146;12.844;2023-04-03T10:23:17;1.73;;;1.10;;
22186;SDS011;11259;52.146;12.844;2023-04-03T10:25:46;1.30;;;0.70;;
22186;SDS011;11259;52.146;12.844;2023-04-03T10:28:18;0.95;;;0.85;;
22186;SDS011;11259;52.146;12.844;2023-04-03T10:30:47;2.30;;;0.77;;
22186;SDS011;11259;52.146;12.844;2023-04-03T10:33:20;0.60;;;0.60;;
22186;SDS011;11259;52.146;12.844;2023-04-03T10:35:57;0.70;;;0.70;;
22186;SDS011;11259;52.146;12.844;2023-04-03T10:38:33;0.98;;;0.70;;
22186;SDS011;11259;52.146;12.844;2023-04-03T10:41:07;1.13;;;1.00;;
22186;SDS011;11259;52.146;12.844;2023-04-03T10:43:40;0.60;;;0.60;;
22186;SDS011;11259;52.146;12.844;2023-04-03T10:46:08;0.73;;;0.60;;
22186;SDS011;11259;52.146;12.844;2023-04-03T10:48:40;0.60;;;0.60;;
22186;SDS011;11259;52.146;12.844;2023-04-03T10:53:40;0.60;;;0.60;;
22186;SDS011;11259;52.146;12.844;2023-04-03T10:56:10;0.63;;;0.63;;
22186;SDS011;11259;52.146;12.844;2023-04-03T10:58:40;0.75;;;0.73;;
22186;SDS011;11259;52.146;12.844;2023-04-03T11:01:08;0.60;;;0.60;;
22186;SDS011;11259;52.146;12.844;2023-04-03T11:03:36;1.75;;;0.70;;
22186;SDS011;11259;52.146;12.844;2023-04-03T11:06:05;0.70;;;0.70;;
22186;SDS011;11259;52.146;12.844;2023-04-03T11:08:33;0.50;;;0.50;;
22186;SDS011;11259;52.146;12.844;2023-04-03T11:11:00;1.42;;;0.95;;
22186;SDS011;11259;52.146;12.844;2023-04-03T11:13:31;0.60;;;0.60;;
22186;SDS011;11259;52.146;12.844;2023-04-03T11:16:00;0.73;;;0.73;;
22186;SDS011;11259;52.146;12.844;2023-04-03T11:18:25;0.60;;;0.60;;
22186;SDS011;11259;52.146;12.844;2023-04-03T11:20:56;0.80;;;0.80;;
22186;SDS011;11259;52.146;12.844;2023-04-03T11:23:24;0.65;;;0.65;;
22186;SDS011;11259;52.146;12.844;2023-04-03T11:25:51;0.70;;;0.70;;
22186;SDS011;11259;52.146;12.844;2023-04-03T11:28:18;0.60;;;0.60;;
22186;SDS011;11259;52.146;12.844;2023-04-03T11:30:45;0.65;;;0.60;;
22186;SDS011;11259;52.146;12.844;2023-04-03T11:33:19;0.55;;;0.55;;
22186;SDS011;11259;52.146;12.844;2023-04-03T11:35:49;0.60;;;0.60;;
22186;SDS011;11259;52.146;12.844;2023-04-03T11:38:17;0.98;;;0.90;;
22186;SDS011;11259;52.146;12.844;2023-04-03T11:40:46;2.92;;;0.65;;
22186;SDS011;11259;52.146;12.844;2023-04-03T11:43:18;0.60;;;0.60;;
22186;SDS011;11259;52.146;12.844;2023-04-03T11:45:50;0.88;;;0.88;;
22186;SDS011;11259;52.146;12.844;2023-04-03T11:54:36;0.50;;;0.50;;
22186;SDS011;11259;52.146;12.844;2023-04-03T12:03:32;0.95;;;0.70;;
22186;SDS011;11259;52.146;12.844;2023-04-03T12:09:26;4.45;;;0.63;;
22186;SDS011;11259;52.146;12.844;2023-04-03T12:11:54;0.60;;;0.60;;
22186;SDS011;11259;52.146;12.844;2023-04-03T12:14:21;0.60;;;0.60;;
22186;SDS011;11259;52.146;12.844;2023-04-03T12:16:47;0.70;;;0.70;;
22186;SDS011;11259;52.146;12.844;2023-04-03T12:19:27;0.85;;;0.85;;
22186;SDS011;11259;52.146;12.844;2023-04-03T12:24:49;0.60;;;0.60;;
22186;SDS011;11259;52.146;12.844;2023-04-03T12:27:23;0.52;;;0.52;;
22186;SDS011;11259;52.146;12.844;2023-04-03T12:29:54;0.70;;;0.70;;
22186;SDS011;11259;52.146;12.844;2023-04-03T12:35:23;0.60;;;0.60;;
22186;SDS011;11259;52.146;12.844;2023-04-03T12:38:15;0.60;;;0.60;;
22186;SDS011;11259;52.146;12.844;2023-04-03T12:40:58;0.95;;;0.90;;
22186;SDS011;11259;52.146;12.844;2023-04-03T12:43:42;0.70;;;0.70;;
22186;SDS011;11259;52.146;12.844;2023-04-03T12:46:12;1.08;;;0.70;;
22186;SDS011;11259;52.146;12.844;2023-04-03T12:48:46;0.70;;;0.70;;
22186;SDS011;11259;52.146;12.844;2023-04-03T12:51:13;1.40;;;0.70;;
22186;SDS011;11259;52.146;12.844;2023-04-03T12:53:39;1.13;;;0.60;;
22186;SDS011;11259;52.146;12.844;2023-04-03T12:56:21;0.70;;;0.70;;
22186;SDS011;11259;52.146;12.844;2023-04-03T12:58:49;0.80;;;0.73;;
22186;SDS011;11259;52.146;12.844;2023-04-03T13:01:15;0.60;;;0.60;;
22186;SDS011;11259;52.146;12.844;2023-04-03T13:03:43;0.60;;;0.60;;
22186;SDS011;11259;52.146;12.844;2023-04-03T13:06:11;0.70;;;0.70;;
22186;SDS011;11259;52.146;12.844;2023-04-03T13:08:47;0.75;;;0.75;;
22186;SDS011;11259;52.146;12.844;2023-04-03T13:11:13;0.70;;;0.70;;
22186;SDS011;11259;52.146;12.844;2023-04-03T13:13:40;0.70;;;0.70;;
22186;SDS011;11259;52.146;12.844;2023-04-03T13:16:19;0.80;;;0.80;;
22186;SDS011;11259;52.146;12.844;2023-04-03T13:18:55;2.30;;;0.95;;
22186;SDS011;11259;52.146;12.844;2023-04-03T13:21:21;0.63;;;0.63;;
22186;SDS011;11259;52.146;12.844;2023-04-03T13:23:50;1.15;;;0.93;;
22186;SDS011;11259;52.146;12.844;2023-04-03T13:26:17;0.80;;;0.80;;
22186;SDS011;11259;52.146;12.844;2023-04-03T13:28:43;0.60;;;0.60;;
22186;SDS011;11259;52.146;12.844;2023-04-03T13:31:17;3.97;;;0.70;;
22186;SDS011;11259;52.146;12.844;2023-04-03T13:33:51;0.73;;;0.73;;
22186;SDS011;11259;52.146;12.844;2023-04-03T13:36:21;0.60;;;0.60;;
22186;SDS011;11259;52.146;12.844;2023-04-03T13:38:57;0.80;;;0.73;;
22186;SDS011;11259;52.146;12.844;2023-04-03T13:41:24;0.80;;;0.80;;
22186;SDS011;11259;52.146;12.844;2023-04-03T13:43:51;0.80;;;0.80;;
22186;SDS011;11259;52.146;12.844;2023-04-03T13:46:23;0.55;;;0.55;;
22186;SDS011;11259;52.146;12.844;2023-04-03T13:48:50;0.57;;;0.57;;
22186;SDS011;11259;52.146;12.844;2023-04-03T13:51:20;2.28;;;0.77;;
22186;SDS011;11259;52.146;12.844;2023-04-03T13:53:48;0.85;;;0.50;;
22186;SDS011;11259;52.146;12.844;2023-04-03T13:56:17;0.60;;;0.60;;
22186;SDS011;11259;52.146;12.844;2023-04-03T13:58:52;0.60;;;0.60;;
22186;SDS011;11259;52.146;12.844;2023-04-03T14:01:22;1.20;;;0.70;;
22186;SDS011;11259;52.146;12.844;2023-04-03T14:03:51;0.73;;;0.73;;
22186;SDS011;11259;52.146;12.844;2023-04-03T14:06:19;0.60;;;0.60;;
22186;SDS011;11259;52.146;12.844;2023-04-03T14:08:45;0.70;;;0.70;;
22186;SDS011;11259;52.146;12.844;2023-04-03T14:11:12;1.00;;;0.90;;
22186;SDS011;11259;52.146;12.844;2023-04-03T14:13:39;1.70;;;1.00;;
22186;SDS011;11259;52.146;12.844;2023-04-03T14:16:04;1.20;;;0.70;;
22186;SDS011;11259;52.146;12.844;2023-04-03T14:18:30;0.60;;;0.60;;
22186;SDS011;11259;52.146;12.844;2023-04-03T14:20:55;0.63;;;0.63;;
22186;SDS011;11259;52.146;12.844;2023-04-03T14:23:22;0.50;;;0.50;;
22186;SDS011;11259;52.146;12.844;2023-04-03T14:25:47;0.75;;;0.60;;
22186;SDS011;11259;52.146;12.844;2023-04-03T14:28:14;0.77;;;0.77;;
22186;SDS011;11259;52.146;12.844;2023-04-03T14:30:40;0.82;;;0.80;;
22186;SDS011;11259;52.146;12.844;2023-04-03T14:33:06;0.60;;;0.60;;
22186;SDS011;11259;52.146;12.844;2023-04-03T14:35:31;0.98;;;0.98;;
22186;SDS011;11259;52.146;12.844;2023-04-03T14:37:57;6.60;;;3.88;;
22186;SDS011;11259;52.146;12.844;2023-04-03T14:40:25;21.15;;;10.07;;
22186;SDS011;11259;52.146;12.844;2023-04-03T14:42:51;17.50;;;8.40;;
22186;SDS011;11259;52.146;12.844;2023-04-03T14:45:17;4.03;;;2.63;;
22186;SDS011;11259;52.146;12.844;2023-04-03T14:47:44;3.67;;;1.90;;
22186;SDS011;11259;52.146;12.844;2023-04-03T14:50:12;4.05;;;1.30;;
22186;SDS011;11259;52.146;12.844;2023-04-03T14:52:40;1.35;;;1.25;;
22186;SDS011;11259;52.146;12.844;2023-04-03T14:55:05;0.85;;;0.85;;
22186;SDS011;11259;52.146;12.844;2023-04-03T14:57:32;0.93;;;0.90;;
22186;SDS011;11259;52.146;12.844;2023-04-03T14:59:58;0.65;;;0.65;;